Legend — WDF9316 — position and weather

sailwx.info

Track history (hours):
 
Tides and Currents Weather Stations Pressure Air Temp Water Temp Dewpoint Dewpoint Depression Visibility Wind Speed Wind Dir Waves Ship Positions

Legend

Owner: Crowley Maritime, Seattle, WA. More information available from US FCC via Universal Licensing System and Coast Guard Vessel Documentation Center.

Last reported at 2016-May-27 14:13 UTC. Time now 2016-May-28 06:00 UTC.
Position N 27°37' W 082°40'.

Length 212 m; draft 7.8 m.

Type: Towing. MMSI: 366709000.

Date/timePositionNaut miles runAvg speedWind from/ knotsBaromVisibWave heightAir tempDewpointWater temp
2016-May-27 14:13N 27°37' W 082°40'812.3
2016-May-27 13:33N 27°42' W 082°33'1111.1
2016-May-27 12:33N 27°51' W 082°27'5 5.2
2016-May-27 11:33N 27°57' W 082°27'0 0.1
2016-May-27 10:33N 27°57' W 082°27'0 0.0
2016-May-27 09:33N 27°57' W 082°27'0 0.0
2016-May-27 08:33N 27°57' W 082°27'0 0.0
2016-May-27 07:33N 27°57' W 082°27'0 0.0
2016-May-27 06:33N 27°57' W 082°27'0 0.0
2016-May-27 05:33N 27°57' W 082°27'0 0.0
2016-May-27 04:33N 27°57' W 082°27'0 0.0
2016-May-27 03:33N 27°57' W 082°27'0 0.0
2016-May-27 02:33N 27°57' W 082°27'0 0.0
2016-May-27 01:33N 27°57' W 082°27'0 0.0
2016-May-27 00:33N 27°57' W 082°27'0 0.0
2016-May-26 23:33N 27°57' W 082°27'0 0.0
2016-May-26 22:33N 27°57' W 082°27'0 0.0
2016-May-26 21:33N 27°57' W 082°27'0 0.0
2016-May-26 20:33N 27°57' W 082°27'0 0.0
2016-May-26 19:33N 27°57' W 082°27'0 0.0
2016-May-26 18:33N 27°57' W 082°27'0 0.0
2016-May-26 17:33N 27°57' W 082°27'0 0.0
2016-May-26 16:33N 27°57' W 082°27'0 0.0
2016-May-26 15:33N 27°57' W 082°27'0 0.0
2016-May-26 14:33N 27°57' W 082°27'0 0.0
2016-May-26 13:33N 27°57' W 082°27'0 0.0
2016-May-26 12:33N 27°57' W 082°27'0 0.0
2016-May-26 11:33N 27°57' W 082°27'2 1.8
2016-May-26 10:34N 27°55' W 082°27'0 0.1
2016-May-26 09:31N 27°55' W 082°27'0 0.0
2016-May-26 08:31N 27°55' W 082°27'0 0.0
2016-May-26 07:31N 27°55' W 082°27'0 0.0
2016-May-26 06:31N 27°55' W 082°27'0 0.0
2016-May-26 05:31N 27°55' W 082°27'0 0.0
2016-May-26 04:31N 27°55' W 082°27'0 0.0
2016-May-26 03:31N 27°55' W 082°27'0 0.0
2016-May-26 02:31N 27°55' W 082°27'0 0.0
2016-May-26 01:31N 27°55' W 082°27'0 0.0
2016-May-26 00:31N 27°55' W 082°27'0 0.0
2016-May-25 23:31N 27°55' W 082°27'0 0.0
2016-May-25 22:31N 27°55' W 082°27'0 0.0
2016-May-25 21:31N 27°55' W 082°27'0 0.0
2016-May-25 20:31N 27°55' W 082°27'0 0.0
2016-May-25 19:31N 27°55' W 082°27'0 0.0
2016-May-25 18:31N 27°55' W 082°27'0 0.0
2016-May-25 17:31N 27°55' W 082°27'0 0.0
2016-May-25 16:31N 27°55' W 082°27'0 0.0
2016-May-25 15:31N 27°55' W 082°27'0 0.0
2016-May-25 14:31N 27°55' W 082°27'0 0.0
2016-May-25 13:31N 27°55' W 082°27'0 0.0
2016-May-25 12:31N 27°55' W 082°27'0 0.0
2016-May-25 11:31N 27°55' W 082°27'0 0.0
2016-May-25 10:31N 27°55' W 082°27'0 0.0
2016-May-25 09:31N 27°55' W 082°27'0 0.0
2016-May-25 08:31N 27°55' W 082°27'0 0.0
2016-May-25 07:31N 27°55' W 082°27'0 0.0
2016-May-25 06:31N 27°55' W 082°27'0 0.0
2016-May-25 05:31N 27°55' W 082°27'0 0.0
2016-May-25 04:31N 27°55' W 082°27'0 0.0
2016-May-25 03:31N 27°55' W 082°27'0 0.0
2016-May-25 02:31N 27°55' W 082°27'0 0.0
2016-May-25 01:31N 27°55' W 082°27'0 0.0
2016-May-25 00:31N 27°55' W 082°27'0 0.1
2016-May-24 23:34N 27°55' W 082°27'6 6.3
2016-May-24 22:33N 27°49' W 082°27'1010.1
2016-May-24 21:34N 27°41' W 082°34'  
2016-May-20 10:30N 30°03' W 090°36'0 0.0
2016-May-20 09:30N 30°03' W 090°36'21 0.9
2016-May-19 09:23N 29°56' W 090°13'5 6.3
2016-May-19 08:34N 29°55' W 090°07'7 7.0
2016-May-19 07:33N 29°56' W 089°59'3 3.0
2016-May-19 06:34N 29°53' W 089°58'7 6.8
2016-May-19 05:33N 29°47' W 090°01'40510.3
2016-May-17 14:17N 27°36' W 082°44'  
Track history (hours):
 
Tides and Currents Weather Stations Pressure Air Temp Water Temp Dewpoint Dewpoint Depression Visibility Wind Speed Wind Dir Waves Ship Positions

Legend

Owner: Crowley Maritime, Seattle, WA. More information available from US FCC via Universal Licensing System and Coast Guard Vessel Documentation Center.

Last reported at 2016-May-27 14:13 UTC. Time now 2016-May-28 06:00 UTC.
Position N 27°37' W 082°40'.

Length 212 m; draft 7.8 m.

Type: Towing. MMSI: 366709000.

Date/timePositionNaut miles runAvg speedWind from/ knotsBaromVisibWave heightAir tempDewpointWater temp
2016-May-27 14:13N 27°37' W 082°40'812.3
2016-May-27 13:33N 27°42' W 082°33'1111.1
2016-May-27 12:33N 27°51' W 082°27'5 5.2
2016-May-27 11:33N 27°57' W 082°27'0 0.1
2016-May-27 10:33N 27°57' W 082°27'0 0.0
2016-May-27 09:33N 27°57' W 082°27'0 0.0
2016-May-27 08:33N 27°57' W 082°27'0 0.0
2016-May-27 07:33N 27°57' W 082°27'0 0.0
2016-May-27 06:33N 27°57' W 082°27'0 0.0
2016-May-27 05:33N 27°57' W 082°27'0 0.0
2016-May-27 04:33N 27°57' W 082°27'0 0.0
2016-May-27 03:33N 27°57' W 082°27'0 0.0
2016-May-27 02:33N 27°57' W 082°27'0 0.0
2016-May-27 01:33N 27°57' W 082°27'0 0.0
2016-May-27 00:33N 27°57' W 082°27'0 0.0
2016-May-26 23:33N 27°57' W 082°27'0 0.0
2016-May-26 22:33N 27°57' W 082°27'0 0.0
2016-May-26 21:33N 27°57' W 082°27'0 0.0
2016-May-26 20:33N 27°57' W 082°27'0 0.0
2016-May-26 19:33N 27°57' W 082°27'0 0.0
2016-May-26 18:33N 27°57' W 082°27'0 0.0
2016-May-26 17:33N 27°57' W 082°27'0 0.0
2016-May-26 16:33N 27°57' W 082°27'0 0.0
2016-May-26 15:33N 27°57' W 082°27'0 0.0
2016-May-26 14:33N 27°57' W 082°27'0 0.0
2016-May-26 13:33N 27°57' W 082°27'0 0.0
2016-May-26 12:33N 27°57' W 082°27'0 0.0
2016-May-26 11:33N 27°57' W 082°27'2 1.8
2016-May-26 10:34N 27°55' W 082°27'0 0.1
2016-May-26 09:31N 27°55' W 082°27'0 0.0
2016-May-26 08:31N 27°55' W 082°27'0 0.0
2016-May-26 07:31N 27°55' W 082°27'0 0.0
2016-May-26 06:31N 27°55' W 082°27'0 0.0
2016-May-26 05:31N 27°55' W 082°27'0 0.0
2016-May-26 04:31N 27°55' W 082°27'0 0.0
2016-May-26 03:31N 27°55' W 082°27'0 0.0
2016-May-26 02:31N 27°55' W 082°27'0 0.0
2016-May-26 01:31N 27°55' W 082°27'0 0.0
2016-May-26 00:31N 27°55' W 082°27'0 0.0
2016-May-25 23:31N 27°55' W 082°27'0 0.0
2016-May-25 22:31N 27°55' W 082°27'0 0.0
2016-May-25 21:31N 27°55' W 082°27'0 0.0
2016-May-25 20:31N 27°55' W 082°27'0 0.0
2016-May-25 19:31N 27°55' W 082°27'0 0.0
2016-May-25 18:31N 27°55' W 082°27'0 0.0
2016-May-25 17:31N 27°55' W 082°27'0 0.0
2016-May-25 16:31N 27°55' W 082°27'0 0.0
2016-May-25 15:31N 27°55' W 082°27'0 0.0
2016-May-25 14:31N 27°55' W 082°27'0 0.0
2016-May-25 13:31N 27°55' W 082°27'0 0.0
2016-May-25 12:31N 27°55' W 082°27'0 0.0
2016-May-25 11:31N 27°55' W 082°27'0 0.0
2016-May-25 10:31N 27°55' W 082°27'0 0.0
2016-May-25 09:31N 27°55' W 082°27'0 0.0
2016-May-25 08:31N 27°55' W 082°27'0 0.0
2016-May-25 07:31N 27°55' W 082°27'0 0.0
2016-May-25 06:31N 27°55' W 082°27'0 0.0
2016-May-25 05:31N 27°55' W 082°27'0 0.0
2016-May-25 04:31N 27°55' W 082°27'0 0.0
2016-May-25 03:31N 27°55' W 082°27'0 0.0
2016-May-25 02:31N 27°55' W 082°27'0 0.0
2016-May-25 01:31N 27°55' W 082°27'0 0.0
2016-May-25 00:31N 27°55' W 082°27'0 0.1
2016-May-24 23:34N 27°55' W 082°27'6 6.3
2016-May-24 22:33N 27°49' W 082°27'1010.1
2016-May-24 21:34N 27°41' W 082°34'  
2016-May-20 10:30N 30°03' W 090°36'0 0.0
2016-May-20 09:30N 30°03' W 090°36'21 0.9
2016-May-19 09:23N 29°56' W 090°13'5 6.3
2016-May-19 08:34N 29°55' W 090°07'7 7.0
2016-May-19 07:33N 29°56' W 089°59'3 3.0
2016-May-19 06:34N 29°53' W 089°58'7 6.8
2016-May-19 05:33N 29°47' W 090°01'40510.3
2016-May-17 14:17N 27°36' W 082°44'  

Dump ship's entire track history